AFR228 VABB-VABB
Flight info
| Callsign | AFR228 |
|---|---|
| Flight time | 0h 13m |
| Altitude | 34000 |
| Route | ANOL2AXEXOLU/27 EXOLU N519 GUREV L639 RITPO P518 PARET G208 KEBUD L124 SODOK L713 PEGOS T216 DAR L125 ROVAD Y11 IKA L125 PAROT G208 ZAJ R661 TBZ L333 DASIS UL746 CRM UW86 SIN UW90 INB UL746 EVGEG L746 ODERO MATEL L744 WRN L619 ARGES BUDOP KEZAL VABB/27 |
| Aircraft | A332/H-SDE3GHIJ2J3J5M1RVWXY/LB2D1 |
Departure
| Time | 2026-05-04 13:16 |
|---|---|
| Airport | Chhatrapati Shivaji Maharaj International Airport (VABB) |
Arrival
| Time | 2026-05-04 13:30 |
|---|---|
| Airport | Chhatrapati Shivaji Maharaj International Airport (VABB) |
| Time | Latitude | Longitude | Altitude | Speed | Heading |
|---|---|---|---|---|---|
| 2026-05-04 13:03 | 20.38338 | 71.43863 | 25757 ft | 488 kts | 150° |
| 2026-05-04 13:03 | 20.35411 | 71.45699 | 25758 ft | 488 kts | 150° |
| 2026-05-04 13:04 | 20.32483 | 71.47535 | 25759 ft | 488 kts | 150° |
| 2026-05-04 13:04 | 20.29558 | 71.49371 | 25760 ft | 488 kts | 150° |
| 2026-05-04 13:04 | 20.26632 | 71.51207 | 25760 ft | 488 kts | 150° |
| 2026-05-04 13:04 | 20.23704 | 71.53044 | 25763 ft | 488 kts | 150° |
| 2026-05-04 13:05 | 20.20780 | 71.54878 | 25761 ft | 488 kts | 150° |
| 2026-05-04 13:05 | 20.17855 | 71.56715 | 25758 ft | 488 kts | 150° |
| 2026-05-04 13:05 | 20.14936 | 71.58559 | 25757 ft | 488 kts | 150° |
| 2026-05-04 13:05 | 20.12021 | 71.60401 | 25764 ft | 487 kts | 150° |
| 2026-05-04 13:06 | 20.09107 | 71.62242 | 25768 ft | 487 kts | 150° |
| 2026-05-04 13:06 | 20.06197 | 71.64082 | 25769 ft | 487 kts | 150° |
| 2026-05-04 13:06 | 20.03285 | 71.65922 | 25768 ft | 487 kts | 150° |
| 2026-05-04 13:06 | 20.00373 | 71.67762 | 25771 ft | 487 kts | 150° |
| 2026-05-04 13:07 | 19.97463 | 71.69602 | 25769 ft | 487 kts | 150° |
| 2026-05-04 13:07 | 19.94590 | 71.71417 | 25768 ft | 487 kts | 150° |
| 2026-05-04 13:07 | 19.91680 | 71.73255 | 25768 ft | 487 kts | 150° |
| 2026-05-04 13:07 | 19.88771 | 71.75092 | 25771 ft | 487 kts | 150° |
| 2026-05-04 13:08 | 19.85860 | 71.76931 | 25772 ft | 487 kts | 150° |
| 2026-05-04 13:08 | 19.82950 | 71.78768 | 25771 ft | 487 kts | 150° |
| 2026-05-04 13:08 | 19.80039 | 71.80605 | 25774 ft | 486 kts | 150° |
| 2026-05-04 13:08 | 19.77134 | 71.82439 | 25774 ft | 486 kts | 150° |
| 2026-05-04 13:09 | 19.74225 | 71.84275 | 25775 ft | 486 kts | 150° |
| 2026-05-04 13:09 | 19.71319 | 71.86111 | 25777 ft | 486 kts | 150° |
| 2026-05-04 13:09 | 19.68414 | 71.87946 | 25777 ft | 486 kts | 150° |
| 2026-05-04 13:09 | 19.65508 | 71.89783 | 25779 ft | 486 kts | 150° |
| 2026-05-04 13:10 | 19.62604 | 71.91619 | 25783 ft | 486 kts | 150° |
| 2026-05-04 13:10 | 19.59702 | 71.93461 | 25779 ft | 486 kts | 150° |
| 2026-05-04 13:10 | 19.56803 | 71.95303 | 25780 ft | 486 kts | 150° |
| 2026-05-04 13:10 | 19.53904 | 71.97145 | 25776 ft | 486 kts | 150° |
| 2026-05-04 13:11 | 19.51006 | 71.98984 | 25782 ft | 485 kts | 150° |
| 2026-05-04 13:11 | 19.48113 | 72.00819 | 25780 ft | 485 kts | 150° |
| 2026-05-04 13:11 | 19.45219 | 72.02654 | 25782 ft | 484 kts | 150° |
| 2026-05-04 13:11 | 19.42327 | 72.04488 | 25789 ft | 484 kts | 150° |
| 2026-05-04 13:12 | 19.39436 | 72.06320 | 25784 ft | 484 kts | 150° |
| 2026-05-04 13:12 | 19.36545 | 72.08153 | 25786 ft | 484 kts | 150° |
| 2026-05-04 13:12 | 19.33653 | 72.09987 | 25786 ft | 484 kts | 150° |
| 2026-05-04 13:12 | 19.30761 | 72.11820 | 25784 ft | 484 kts | 150° |
| 2026-05-04 13:13 | 19.27872 | 72.13651 | 25785 ft | 484 kts | 150° |
| 2026-05-04 13:13 | 19.24979 | 72.15485 | 25786 ft | 484 kts | 150° |
| 2026-05-04 13:13 | 19.22091 | 72.17316 | 25782 ft | 484 kts | 150° |
| 2026-05-04 13:13 | 19.19204 | 72.19144 | 25785 ft | 484 kts | 150° |
| 2026-05-04 13:14 | 19.16315 | 72.20974 | 25787 ft | 484 kts | 150° |
| 2026-05-04 13:14 | 19.13442 | 72.22820 | 25721 ft | 482 kts | 147° |
| 2026-05-04 13:14 | 19.10890 | 72.25120 | 25158 ft | 484 kts | 131° |
| 2026-05-04 13:14 | 19.09037 | 72.28065 | 24770 ft | 480 kts | 114° |
| 2026-05-04 13:15 | 19.08024 | 72.31383 | 24413 ft | 473 kts | 98° |
| 2026-05-04 13:15 | 19.07904 | 72.34820 | 23996 ft | 466 kts | 81° |
| 2026-05-04 13:15 | 19.08577 | 72.38144 | 23578 ft | 460 kts | 72° |
| 2026-05-04 13:15 | 19.09522 | 72.41364 | 23123 ft | 457 kts | 70° |
| 2026-05-04 13:16 | 19.10503 | 72.44547 | 22622 ft | 454 kts | 70° |
| 2026-05-04 13:16 | 19.11483 | 72.47703 | 22181 ft | 450 kts | 70° |
| 2026-05-04 13:16 | 19.12459 | 72.50831 | 21718 ft | 446 kts | 70° |
| 2026-05-04 13:16 | 19.13430 | 72.53932 | 21282 ft | 442 kts | 70° |
| 2026-05-04 13:17 | 19.14398 | 72.57008 | 20825 ft | 439 kts | 70° |
| 2026-05-04 13:17 | 19.15355 | 72.60043 | 20067 ft | 432 kts | 70° |
| 2026-05-04 13:17 | 19.16317 | 72.63067 | 18800 ft | 437 kts | 70° |
| 2026-05-04 13:17 | 19.17298 | 72.66118 | 17624 ft | 438 kts | 70° |
| 2026-05-04 13:18 | 19.18280 | 72.69145 | 16516 ft | 433 kts | 70° |
| 2026-05-04 13:18 | 19.19256 | 72.72138 | 15466 ft | 427 kts | 70° |
| 2026-05-04 13:18 | 19.20043 | 72.75148 | 14443 ft | 423 kts | 80° |
| 2026-05-04 13:18 | 19.20290 | 72.78186 | 13475 ft | 418 kts | 89° |
| 2026-05-04 13:19 | 19.20308 | 72.81274 | 12444 ft | 411 kts | 90° |
| 2026-05-04 13:19 | 19.20300 | 72.84230 | 11451 ft | 404 kts | 90° |
| 2026-05-04 13:19 | 19.20289 | 72.87207 | 10610 ft | 394 kts | 90° |
| 2026-05-04 13:19 | 19.20279 | 72.90062 | 9800 ft | 384 kts | 90° |
| 2026-05-04 13:20 | 19.20265 | 72.92855 | 8876 ft | 377 kts | 90° |
| 2026-05-04 13:20 | 19.20246 | 72.95587 | 8231 ft | 377 kts | 90° |
| 2026-05-04 13:20 | 19.20208 | 72.98384 | 7606 ft | 384 kts | 90° |
| 2026-05-04 13:20 | 19.20158 | 73.01254 | 6707 ft | 395 kts | 90° |
| 2026-05-04 13:21 | 19.20104 | 73.04145 | 6274 ft | 390 kts | 90° |
| 2026-05-04 13:21 | 19.20049 | 73.06978 | 5970 ft | 380 kts | 90° |
| 2026-05-04 13:21 | 19.19994 | 73.09720 | 5676 ft | 364 kts | 90° |
| 2026-05-04 13:21 | 19.19889 | 73.12322 | 5314 ft | 345 kts | 97° |
| 2026-05-04 13:22 | 19.19150 | 73.14652 | 4947 ft | 328 kts | 121° |
| 2026-05-04 13:22 | 19.17692 | 73.16402 | 4630 ft | 310 kts | 146° |
| 2026-05-04 13:22 | 19.15818 | 73.17308 | 4309 ft | 285 kts | 172° |
| 2026-05-04 13:22 | 19.13932 | 73.17288 | 3800 ft | 263 kts | 199° |
| 2026-05-04 13:23 | 19.12405 | 73.16410 | 3293 ft | 243 kts | 226° |
| 2026-05-04 13:23 | 19.11420 | 73.15064 | 2995 ft | 220 kts | 238° |
| 2026-05-04 13:23 | 19.10666 | 73.13753 | 2801 ft | 197 kts | 239° |
| 2026-05-04 13:23 | 19.10019 | 73.12581 | 2837 ft | 173 kts | 240° |
| 2026-05-04 13:24 | 19.09538 | 73.11514 | 2893 ft | 152 kts | 252° |
| 2026-05-04 13:24 | 19.09320 | 73.10439 | 2896 ft | 149 kts | 261° |
| 2026-05-04 13:24 | 19.09238 | 73.09355 | 2896 ft | 147 kts | 265° |
| 2026-05-04 13:25 | 19.09189 | 73.07157 | 2891 ft | 151 kts | 267° |
| 2026-05-04 13:25 | 19.09173 | 73.06047 | 2882 ft | 150 kts | 266° |
| 2026-05-04 13:25 | 19.09152 | 73.04946 | 2830 ft | 147 kts | 268° |
| 2026-05-04 13:25 | 19.09130 | 73.03884 | 2894 ft | 146 kts | 267° |
| 2026-05-04 13:26 | 19.09109 | 73.02799 | 2763 ft | 149 kts | 268° |
| 2026-05-04 13:26 | 19.09094 | 73.01709 | 2546 ft | 148 kts | 268° |
| 2026-05-04 13:26 | 19.09079 | 73.00621 | 2352 ft | 149 kts | 267° |
| 2026-05-04 13:26 | 19.09063 | 72.99525 | 2149 ft | 149 kts | 267° |
| 2026-05-04 13:27 | 19.09046 | 72.98429 | 1957 ft | 149 kts | 268° |
| 2026-05-04 13:27 | 19.09031 | 72.97335 | 1767 ft | 149 kts | 266° |
| 2026-05-04 13:27 | 19.09014 | 72.96241 | 1578 ft | 149 kts | 268° |
| 2026-05-04 13:27 | 19.08998 | 72.95149 | 1376 ft | 148 kts | 267° |
| 2026-05-04 13:28 | 19.08982 | 72.94055 | 1198 ft | 148 kts | 266° |
| 2026-05-04 13:28 | 19.08966 | 72.92964 | 997 ft | 148 kts | 265° |
| 2026-05-04 13:28 | 19.08950 | 72.91875 | 815 ft | 148 kts | 265° |
| 2026-05-04 13:28 | 19.08947 | 72.90800 | 596 ft | 145 kts | 265° |
| 2026-05-04 13:29 | 19.08926 | 72.89727 | 452 ft | 147 kts | 265° |
| 2026-05-04 13:29 | 19.08896 | 72.88638 | 275 ft | 150 kts | 267° |
| 2026-05-04 13:29 | 19.08885 | 72.87547 | 54 ft | 146 kts | 266° |
| 2026-05-04 13:29 | 19.08869 | 72.86818 | 38 ft | 52 kts | 269° |
| 2026-05-04 13:30 | 19.08895 | 72.86510 | 34 ft | 20 kts | 300° |
| 2026-05-04 13:30 | 19.08980 | 72.86409 | 35 ft | 16 kts | 314° |
| 2026-05-04 13:30 | 19.09003 | 72.86383 | 35 ft | 0 kts | 314° |
| 2026-05-04 13:31 | 19.09012 | 72.86373 | 35 ft | 4 kts | 314° |
| 2026-05-04 13:31 | 19.09030 | 72.86343 | 35 ft | 6 kts | 292° |
| 2026-05-04 13:32 | 19.09035 | 72.86293 | 35 ft | 8 kts | 273° |
| 2026-05-04 13:32 | 19.09036 | 72.86272 | 35 ft | 0 kts | 273° |